KOXB

Ocean City Municipal Airport

Ocean City, Maryland, USA
METAR KOXB 241253Z AUTO 01007KT 10SM CLR 23/15 A3015 RMK AO2 SLP208 T02280150
Observed Flight Rules
May-24 @ 12:53 UTC (an hour ago) Visual Flight Rules
Wind Visibility Clouds
10° at 7 knots 10 miles
  • Clear skies
Temperatures Readings
Current 23°C / 73°F
Dewpoint 15°C / 59°F
Humidity 61%
Altimeter 30.15" Hg
Pressure 1020.8 hPa
Elevation 3
METAR KOXB 241253Z AUTO 01007KT 10SM CLR 23/15 A3015 RMK AO2 SLP208 T02280150
Observed Flight Rules
May-24 @ 12:53 UTC
(an hour ago)
VFR
Wind Visibility
10° at 7 knots 10 miles
Clouds
  • Clear skies
Temperature Dewpoint
23°C / 73°F 15°C / 59°F
Humidity Altimeter Pressure
61% 30.15" Hg 1020.8 hPa